Terminal Aerodrome Forecast
Issued by NWS

Home | Current Version | Previous Version | Text Only | Print | Product List | Glossary On
Versions: 1 2 3 4 5 6 7 8 9 10 11 12 13 14
000
FTUS42 KMLB 020534
TAFLEE
TAF
KLEE 020534Z 0206/0306 30004KT P6SM FEW050 SCT250
     FM021400 10006KT P6SM SCT040 BKN250
     FM021800 18005KT P6SM BKN040 OVC250
     FM030200 11003KT P6SM SCT250=

USA.gov is the U.S. government's official web portal to all federal, state and local government web resources and services.